sensor_id;sensor_type;location;lat;lon;timestamp;P1;durP1;ratioP1;P2;durP2;ratioP2
4638;SDS011;2332;38.646;-9.154;2023-04-26T00:01:06;3.80;;;1.80;;
4638;SDS011;2332;38.646;-9.154;2023-04-26T00:03:32;3.47;;;1.43;;
4638;SDS011;2332;38.646;-9.154;2023-04-26T00:05:58;3.83;;;1.70;;
4638;SDS011;2332;38.646;-9.154;2023-04-26T00:08:24;2.13;;;1.40;;
4638;SDS011;2332;38.646;-9.154;2023-04-26T00:10:49;3.77;;;1.87;;
4638;SDS011;2332;38.646;-9.154;2023-04-26T00:13:14;2.40;;;2.17;;
4638;SDS011;2332;38.646;-9.154;2023-04-26T00:15:40;3.80;;;2.00;;
4638;SDS011;2332;38.646;-9.154;2023-04-26T00:18:05;2.80;;;1.50;;
4638;SDS011;2332;38.646;-9.154;2023-04-26T00:20:30;5.73;;;1.63;;
4638;SDS011;2332;38.646;-9.154;2023-04-26T00:22:56;3.00;;;1.80;;
4638;SDS011;2332;38.646;-9.154;2023-04-26T00:25:22;2.40;;;1.50;;
4638;SDS011;2332;38.646;-9.154;2023-04-26T00:27:50;2.77;;;1.70;;
4638;SDS011;2332;38.646;-9.154;2023-04-26T00:30:16;2.07;;;1.70;;
4638;SDS011;2332;38.646;-9.154;2023-04-26T00:32:41;2.73;;;1.57;;
4638;SDS011;2332;38.646;-9.154;2023-04-26T00:35:07;7.10;;;2.20;;
4638;SDS011;2332;38.646;-9.154;2023-04-26T00:37:33;1.90;;;1.60;;
4638;SDS011;2332;38.646;-9.154;2023-04-26T00:39:58;4.53;;;1.73;;
4638;SDS011;2332;38.646;-9.154;2023-04-26T00:42:23;3.77;;;1.90;;
4638;SDS011;2332;38.646;-9.154;2023-04-26T00:44:51;2.80;;;2.07;;
4638;SDS011;2332;38.646;-9.154;2023-04-26T00:47:19;4.17;;;1.30;;
4638;SDS011;2332;38.646;-9.154;2023-04-26T00:49:45;2.60;;;1.67;;
4638;SDS011;2332;38.646;-9.154;2023-04-26T00:52:10;3.93;;;1.77;;
4638;SDS011;2332;38.646;-9.154;2023-04-26T00:54:35;1.70;;;1.60;;
4638;SDS011;2332;38.646;-9.154;2023-04-26T00:57:01;4.77;;;1.63;;
4638;SDS011;2332;38.646;-9.154;2023-04-26T00:59:26;3.80;;;1.70;;
4638;SDS011;2332;38.646;-9.154;2023-04-26T01:01:52;1.40;;;1.30;;
4638;SDS011;2332;38.646;-9.154;2023-04-26T01:04:18;2.27;;;1.57;;
4638;SDS011;2332;38.646;-9.154;2023-04-26T01:06:43;5.50;;;1.47;;
4638;SDS011;2332;38.646;-9.154;2023-04-26T01:09:09;2.60;;;1.70;;
4638;SDS011;2332;38.646;-9.154;2023-04-26T01:11:38;2.23;;;1.30;;
4638;SDS011;2332;38.646;-9.154;2023-04-26T01:14:04;3.83;;;1.37;;
4638;SDS011;2332;38.646;-9.154;2023-04-26T01:16:30;2.23;;;1.67;;
4638;SDS011;2332;38.646;-9.154;2023-04-26T01:18:56;3.13;;;1.60;;
4638;SDS011;2332;38.646;-9.154;2023-04-26T01:21:22;6.70;;;1.40;;
4638;SDS011;2332;38.646;-9.154;2023-04-26T01:23:48;1.50;;;1.40;;
4638;SDS011;2332;38.646;-9.154;2023-04-26T01:26:14;5.40;;;1.30;;
4638;SDS011;2332;38.646;-9.154;2023-04-26T01:28:39;1.40;;;1.40;;
4638;SDS011;2332;38.646;-9.154;2023-04-26T01:31:05;4.07;;;1.80;;
4638;SDS011;2332;38.646;-9.154;2023-04-26T01:33:30;4.50;;;1.60;;
4638;SDS011;2332;38.646;-9.154;2023-04-26T01:35:56;2.30;;;1.40;;
4638;SDS011;2332;38.646;-9.154;2023-04-26T01:38:21;4.63;;;2.10;;
4638;SDS011;2332;38.646;-9.154;2023-04-26T01:40:46;5.80;;;1.90;;
4638;SDS011;2332;38.646;-9.154;2023-04-26T01:43:12;3.83;;;1.40;;
4638;SDS011;2332;38.646;-9.154;2023-04-26T01:45:39;4.10;;;1.43;;
4638;SDS011;2332;38.646;-9.154;2023-04-26T01:48:05;2.60;;;1.50;;
4638;SDS011;2332;38.646;-9.154;2023-04-26T01:50:31;1.40;;;1.30;;
4638;SDS011;2332;38.646;-9.154;2023-04-26T01:52:56;3.03;;;1.40;;
4638;SDS011;2332;38.646;-9.154;2023-04-26T01:55:21;4.60;;;1.70;;
4638;SDS011;2332;38.646;-9.154;2023-04-26T01:57:47;4.50;;;1.67;;
4638;SDS011;2332;38.646;-9.154;2023-04-26T02:00:12;5.83;;;1.57;;
4638;SDS011;2332;38.646;-9.154;2023-04-26T02:02:38;4.70;;;1.90;;
4638;SDS011;2332;38.646;-9.154;2023-04-26T02:05:03;3.10;;;1.90;;
4638;SDS011;2332;38.646;-9.154;2023-04-26T02:07:29;1.90;;;1.80;;
4638;SDS011;2332;38.646;-9.154;2023-04-26T02:09:54;6.40;;;1.97;;
4638;SDS011;2332;38.646;-9.154;2023-04-26T02:12:20;4.67;;;2.20;;
4638;SDS011;2332;38.646;-9.154;2023-04-26T02:14:45;2.03;;;1.53;;
4638;SDS011;2332;38.646;-9.154;2023-04-26T02:17:11;3.90;;;1.60;;
4638;SDS011;2332;38.646;-9.154;2023-04-26T02:19:36;5.30;;;1.80;;
4638;SDS011;2332;38.646;-9.154;2023-04-26T02:22:03;2.87;;;1.47;;
4638;SDS011;2332;38.646;-9.154;2023-04-26T02:24:28;4.87;;;1.60;;
4638;SDS011;2332;38.646;-9.154;2023-04-26T02:26:54;3.10;;;1.50;;
4638;SDS011;2332;38.646;-9.154;2023-04-26T02:29:20;4.00;;;1.93;;
4638;SDS011;2332;38.646;-9.154;2023-04-26T02:31:45;6.13;;;3.00;;
4638;SDS011;2332;38.646;-9.154;2023-04-26T02:34:12;3.80;;;3.30;;
4638;SDS011;2332;38.646;-9.154;2023-04-26T02:36:38;5.90;;;3.30;;
4638;SDS011;2332;38.646;-9.154;2023-04-26T02:39:03;5.80;;;3.80;;
4638;SDS011;2332;38.646;-9.154;2023-04-26T02:41:32;6.10;;;4.33;;
4638;SDS011;2332;38.646;-9.154;2023-04-26T02:43:58;5.57;;;4.23;;
4638;SDS011;2332;38.646;-9.154;2023-04-26T02:46:24;7.60;;;4.67;;
4638;SDS011;2332;38.646;-9.154;2023-04-26T02:48:49;5.20;;;4.03;;
4638;SDS011;2332;38.646;-9.154;2023-04-26T02:51:14;7.83;;;5.00;;
4638;SDS011;2332;38.646;-9.154;2023-04-26T02:53:40;5.63;;;4.37;;
4638;SDS011;2332;38.646;-9.154;2023-04-26T02:56:05;7.53;;;4.53;;
4638;SDS011;2332;38.646;-9.154;2023-04-26T02:58:31;9.43;;;5.00;;
4638;SDS011;2332;38.646;-9.154;2023-04-26T03:00:56;5.70;;;4.43;;
4638;SDS011;2332;38.646;-9.154;2023-04-26T03:03:23;9.90;;;4.20;;
4638;SDS011;2332;38.646;-9.154;2023-04-26T03:05:49;7.03;;;3.97;;
4638;SDS011;2332;38.646;-9.154;2023-04-26T03:08:15;5.50;;;4.17;;
4638;SDS011;2332;38.646;-9.154;2023-04-26T03:10:40;3.60;;;3.23;;
4638;SDS011;2332;38.646;-9.154;2023-04-26T03:13:05;9.63;;;3.60;;
4638;SDS011;2332;38.646;-9.154;2023-04-26T03:15:31;5.97;;;3.70;;
4638;SDS011;2332;38.646;-9.154;2023-04-26T03:17:56;4.53;;;3.60;;
4638;SDS011;2332;38.646;-9.154;2023-04-26T03:20:25;6.70;;;3.70;;
4638;SDS011;2332;38.646;-9.154;2023-04-26T03:22:50;9.33;;;4.70;;
4638;SDS011;2332;38.646;-9.154;2023-04-26T03:25:15;12.43;;;4.33;;
4638;SDS011;2332;38.646;-9.154;2023-04-26T03:27:44;6.50;;;3.87;;
4638;SDS011;2332;38.646;-9.154;2023-04-26T03:30:09;7.27;;;4.83;;
4638;SDS011;2332;38.646;-9.154;2023-04-26T03:32:35;5.83;;;4.33;;
4638;SDS011;2332;38.646;-9.154;2023-04-26T03:35:00;8.40;;;3.63;;
4638;SDS011;2332;38.646;-9.154;2023-04-26T03:37:25;6.53;;;4.10;;
4638;SDS011;2332;38.646;-9.154;2023-04-26T03:39:51;12.20;;;3.60;;
4638;SDS011;2332;38.646;-9.154;2023-04-26T03:42:18;9.20;;;4.13;;
4638;SDS011;2332;38.646;-9.154;2023-04-26T03:44:44;9.30;;;4.50;;
4638;SDS011;2332;38.646;-9.154;2023-04-26T03:47:09;11.83;;;4.57;;
4638;SDS011;2332;38.646;-9.154;2023-04-26T03:49:34;8.80;;;4.73;;
4638;SDS011;2332;38.646;-9.154;2023-04-26T03:52:00;6.50;;;3.87;;
4638;SDS011;2332;38.646;-9.154;2023-04-26T03:54:25;6.80;;;4.10;;
4638;SDS011;2332;38.646;-9.154;2023-04-26T03:56:51;11.60;;;4.00;;
4638;SDS011;2332;38.646;-9.154;2023-04-26T03:59:16;4.40;;;3.70;;
4638;SDS011;2332;38.646;-9.154;2023-04-26T04:01:41;9.50;;;4.07;;
4638;SDS011;2332;38.646;-9.154;2023-04-26T04:04:07;8.90;;;4.63;;
4638;SDS011;2332;38.646;-9.154;2023-04-26T04:06:32;4.77;;;3.50;;
4638;SDS011;2332;38.646;-9.154;2023-04-26T04:08:57;5.00;;;3.43;;
4638;SDS011;2332;38.646;-9.154;2023-04-26T04:11:23;4.20;;;3.80;;
4638;SDS011;2332;38.646;-9.154;2023-04-26T04:13:48;9.50;;;4.50;;
4638;SDS011;2332;38.646;-9.154;2023-04-26T04:16:13;7.60;;;4.57;;
4638;SDS011;2332;38.646;-9.154;2023-04-26T04:18:39;6.10;;;3.67;;
4638;SDS011;2332;38.646;-9.154;2023-04-26T04:21:04;6.77;;;4.10;;
4638;SDS011;2332;38.646;-9.154;2023-04-26T04:23:30;6.10;;;4.10;;
4638;SDS011;2332;38.646;-9.154;2023-04-26T04:25:56;6.50;;;4.70;;
4638;SDS011;2332;38.646;-9.154;2023-04-26T04:28:21;6.57;;;3.93;;
4638;SDS011;2332;38.646;-9.154;2023-04-26T04:30:47;13.77;;;5.03;;
4638;SDS011;2332;38.646;-9.154;2023-04-26T04:33:13;8.80;;;5.00;;
4638;SDS011;2332;38.646;-9.154;2023-04-26T04:35:40;6.80;;;4.60;;
4638;SDS011;2332;38.646;-9.154;2023-04-26T04:38:05;6.93;;;5.50;;
4638;SDS011;2332;38.646;-9.154;2023-04-26T04:40:30;6.53;;;5.83;;
4638;SDS011;2332;38.646;-9.154;2023-04-26T04:42:56;12.00;;;6.07;;
4638;SDS011;2332;38.646;-9.154;2023-04-26T04:45:25;5.80;;;5.10;;
4638;SDS011;2332;38.646;-9.154;2023-04-26T04:47:51;7.17;;;5.17;;
4638;SDS011;2332;38.646;-9.154;2023-04-26T04:50:18;13.40;;;5.43;;
4638;SDS011;2332;38.646;-9.154;2023-04-26T04:52:43;6.00;;;4.90;;
4638;SDS011;2332;38.646;-9.154;2023-04-26T04:55:09;11.13;;;6.47;;
4638;SDS011;2332;38.646;-9.154;2023-04-26T04:57:34;9.67;;;5.50;;
4638;SDS011;2332;38.646;-9.154;2023-04-26T05:00:00;8.70;;;4.90;;
4638;SDS011;2332;38.646;-9.154;2023-04-26T05:02:34;14.10;;;6.93;;
4638;SDS011;2332;38.646;-9.154;2023-04-26T05:04:59;5.50;;;4.97;;
4638;SDS011;2332;38.646;-9.154;2023-04-26T05:07:26;13.63;;;6.00;;
4638;SDS011;2332;38.646;-9.154;2023-04-26T05:09:51;15.70;;;5.80;;
4638;SDS011;2332;38.646;-9.154;2023-04-26T05:12:16;7.63;;;5.43;;
4638;SDS011;2332;38.646;-9.154;2023-04-26T05:14:42;7.90;;;5.67;;
4638;SDS011;2332;38.646;-9.154;2023-04-26T05:17:07;15.37;;;5.50;;
4638;SDS011;2332;38.646;-9.154;2023-04-26T05:19:32;7.80;;;5.33;;
4638;SDS011;2332;38.646;-9.154;2023-04-26T05:21:58;15.40;;;5.60;;
4638;SDS011;2332;38.646;-9.154;2023-04-26T05:24:23;12.77;;;5.10;;
4638;SDS011;2332;38.646;-9.154;2023-04-26T05:26:49;9.33;;;5.73;;
4638;SDS011;2332;38.646;-9.154;2023-04-26T05:29:14;16.73;;;6.43;;
4638;SDS011;2332;38.646;-9.154;2023-04-26T05:31:40;13.40;;;6.77;;
4638;SDS011;2332;38.646;-9.154;2023-04-26T05:34:06;15.70;;;6.30;;
4638;SDS011;2332;38.646;-9.154;2023-04-26T05:36:31;15.73;;;6.30;;
4638;SDS011;2332;38.646;-9.154;2023-04-26T05:38:56;9.97;;;5.60;;
4638;SDS011;2332;38.646;-9.154;2023-04-26T05:41:22;8.40;;;5.60;;
4638;SDS011;2332;38.646;-9.154;2023-04-26T05:43:47;13.07;;;6.07;;
4638;SDS011;2332;38.646;-9.154;2023-04-26T05:46:13;12.30;;;5.70;;
4638;SDS011;2332;38.646;-9.154;2023-04-26T05:48:38;14.33;;;6.40;;
4638;SDS011;2332;38.646;-9.154;2023-04-26T05:51:04;18.03;;;6.60;;
4638;SDS011;2332;38.646;-9.154;2023-04-26T05:53:29;9.37;;;5.73;;
4638;SDS011;2332;38.646;-9.154;2023-04-26T05:55:55;8.90;;;6.00;;
4638;SDS011;2332;38.646;-9.154;2023-04-26T05:58:20;14.43;;;6.13;;
4638;SDS011;2332;38.646;-9.154;2023-04-26T06:00:46;13.57;;;6.03;;
4638;SDS011;2332;38.646;-9.154;2023-04-26T06:03:11;7.60;;;5.50;;
4638;SDS011;2332;38.646;-9.154;2023-04-26T06:05:37;10.67;;;5.97;;
4638;SDS011;2332;38.646;-9.154;2023-04-26T06:08:02;14.40;;;5.90;;
4638;SDS011;2332;38.646;-9.154;2023-04-26T06:10:28;11.30;;;5.30;;
4638;SDS011;2332;38.646;-9.154;2023-04-26T06:12:53;8.00;;;5.23;;
4638;SDS011;2332;38.646;-9.154;2023-04-26T06:15:18;12.23;;;6.13;;
4638;SDS011;2332;38.646;-9.154;2023-04-26T06:17:44;14.63;;;7.93;;
4638;SDS011;2332;38.646;-9.154;2023-04-26T06:20:09;15.20;;;6.10;;
4638;SDS011;2332;38.646;-9.154;2023-04-26T06:22:35;19.40;;;7.20;;
4638;SDS011;2332;38.646;-9.154;2023-04-26T06:25:00;12.27;;;6.20;;
4638;SDS011;2332;38.646;-9.154;2023-04-26T06:27:26;15.17;;;6.70;;
4638;SDS011;2332;38.646;-9.154;2023-04-26T06:29:51;15.00;;;6.17;;
4638;SDS011;2332;38.646;-9.154;2023-04-26T06:32:17;11.40;;;6.47;;
4638;SDS011;2332;38.646;-9.154;2023-04-26T06:34:42;11.50;;;5.50;;
4638;SDS011;2332;38.646;-9.154;2023-04-26T06:37:09;11.93;;;5.63;;
4638;SDS011;2332;38.646;-9.154;2023-04-26T06:39:35;8.07;;;4.93;;
4638;SDS011;2332;38.646;-9.154;2023-04-26T06:42:02;7.30;;;5.90;;
4638;SDS011;2332;38.646;-9.154;2023-04-26T06:44:27;13.83;;;6.67;;
4638;SDS011;2332;38.646;-9.154;2023-04-26T06:46:53;10.90;;;6.63;;
4638;SDS011;2332;38.646;-9.154;2023-04-26T06:49:19;11.20;;;7.80;;
4638;SDS011;2332;38.646;-9.154;2023-04-26T06:51:45;11.27;;;6.67;;
4638;SDS011;2332;38.646;-9.154;2023-04-26T06:54:11;10.00;;;6.90;;
4638;SDS011;2332;38.646;-9.154;2023-04-26T06:56:36;20.73;;;7.13;;
4638;SDS011;2332;38.646;-9.154;2023-04-26T06:59:02;16.50;;;7.67;;
4638;SDS011;2332;38.646;-9.154;2023-04-26T07:01:28;11.70;;;7.13;;
4638;SDS011;2332;38.646;-9.154;2023-04-26T07:03:57;15.27;;;10.53;;
4638;SDS011;2332;38.646;-9.154;2023-04-26T07:06:23;13.07;;;7.30;;
4638;SDS011;2332;38.646;-9.154;2023-04-26T07:08:48;18.73;;;8.17;;
4638;SDS011;2332;38.646;-9.154;2023-04-26T07:11:14;15.43;;;8.73;;
4638;SDS011;2332;38.646;-9.154;2023-04-26T07:13:40;12.13;;;7.73;;
4638;SDS011;2332;38.646;-9.154;2023-04-26T07:16:05;16.43;;;8.23;;
4638;SDS011;2332;38.646;-9.154;2023-04-26T07:18:31;12.37;;;8.40;;
4638;SDS011;2332;38.646;-9.154;2023-04-26T07:20:58;13.57;;;8.50;;
4638;SDS011;2332;38.646;-9.154;2023-04-26T07:23:23;7.90;;;7.10;;
4638;SDS011;2332;38.646;-9.154;2023-04-26T07:25:48;14.00;;;8.90;;
4638;SDS011;2332;38.646;-9.154;2023-04-26T07:28:14;14.60;;;8.37;;
4638;SDS011;2332;38.646;-9.154;2023-04-26T07:30:40;10.03;;;8.53;;
4638;SDS011;2332;38.646;-9.154;2023-04-26T07:33:05;16.47;;;9.17;;
4638;SDS011;2332;38.646;-9.154;2023-04-26T07:35:30;10.20;;;8.10;;
4638;SDS011;2332;38.646;-9.154;2023-04-26T07:37:58;9.67;;;7.90;;
4638;SDS011;2332;38.646;-9.154;2023-04-26T07:40:24;10.53;;;8.40;;
4638;SDS011;2332;38.646;-9.154;2023-04-26T07:42:50;12.47;;;8.37;;
4638;SDS011;2332;38.646;-9.154;2023-04-26T07:45:15;9.33;;;7.50;;
4638;SDS011;2332;38.646;-9.154;2023-04-26T07:47:41;8.23;;;6.60;;
4638;SDS011;2332;38.646;-9.154;2023-04-26T07:50:06;5.50;;;4.60;;
4638;SDS011;2332;38.646;-9.154;2023-04-26T07:52:32;11.83;;;5.20;;
4638;SDS011;2332;38.646;-9.154;2023-04-26T07:54:58;5.70;;;5.10;;
4638;SDS011;2332;38.646;-9.154;2023-04-26T07:57:23;6.07;;;4.67;;
4638;SDS011;2332;38.646;-9.154;2023-04-26T07:59:48;7.90;;;5.47;;
4638;SDS011;2332;38.646;-9.154;2023-04-26T08:02:14;10.27;;;6.50;;
4638;SDS011;2332;38.646;-9.154;2023-04-26T08:04:45;11.30;;;6.70;;
4638;SDS011;2332;38.646;-9.154;2023-04-26T08:07:12;11.63;;;6.37;;
4638;SDS011;2332;38.646;-9.154;2023-04-26T08:09:37;7.90;;;5.93;;
4638;SDS011;2332;38.646;-9.154;2023-04-26T08:12:03;9.57;;;5.53;;
4638;SDS011;2332;38.646;-9.154;2023-04-26T08:14:28;10.77;;;6.97;;
4638;SDS011;2332;38.646;-9.154;2023-04-26T08:16:55;9.53;;;6.57;;
4638;SDS011;2332;38.646;-9.154;2023-04-26T08:19:20;12.43;;;6.80;;
4638;SDS011;2332;38.646;-9.154;2023-04-26T08:21:46;6.90;;;6.23;;
4638;SDS011;2332;38.646;-9.154;2023-04-26T08:24:11;9.13;;;7.10;;
4638;SDS011;2332;38.646;-9.154;2023-04-26T08:26:36;12.50;;;6.60;;
4638;SDS011;2332;38.646;-9.154;2023-04-26T08:29:02;6.33;;;5.67;;
4638;SDS011;2332;38.646;-9.154;2023-04-26T08:31:27;13.00;;;6.80;;
4638;SDS011;2332;38.646;-9.154;2023-04-26T08:33:53;15.80;;;7.67;;
4638;SDS011;2332;38.646;-9.154;2023-04-26T08:36:18;7.10;;;6.40;;
4638;SDS011;2332;38.646;-9.154;2023-04-26T08:38:44;8.60;;;6.43;;
4638;SDS011;2332;38.646;-9.154;2023-04-26T08:41:12;17.83;;;5.93;;
4638;SDS011;2332;38.646;-9.154;2023-04-26T08:43:40;7.03;;;5.10;;
4638;SDS011;2332;38.646;-9.154;2023-04-26T08:46:06;9.73;;;5.50;;
4638;SDS011;2332;38.646;-9.154;2023-04-26T08:48:35;6.40;;;5.20;;
4638;SDS011;2332;38.646;-9.154;2023-04-26T08:51:01;9.60;;;5.83;;
4638;SDS011;2332;38.646;-9.154;2023-04-26T08:53:27;6.73;;;5.90;;
4638;SDS011;2332;38.646;-9.154;2023-04-26T08:55:54;12.30;;;5.73;;
4638;SDS011;2332;38.646;-9.154;2023-04-26T08:58:19;10.73;;;5.23;;
4638;SDS011;2332;38.646;-9.154;2023-04-26T09:00:45;8.50;;;5.60;;
4638;SDS011;2332;38.646;-9.154;2023-04-26T09:03:11;7.83;;;6.23;;
4638;SDS011;2332;38.646;-9.154;2023-04-26T09:05:39;8.27;;;7.03;;
4638;SDS011;2332;38.646;-9.154;2023-04-26T09:08:08;10.80;;;6.17;;
4638;SDS011;2332;38.646;-9.154;2023-04-26T09:10:33;10.03;;;5.27;;
4638;SDS011;2332;38.646;-9.154;2023-04-26T09:12:59;4.93;;;3.33;;
4638;SDS011;2332;38.646;-9.154;2023-04-26T09:15:25;3.77;;;2.70;;
4638;SDS011;2332;38.646;-9.154;2023-04-26T09:17:51;7.13;;;4.33;;
4638;SDS011;2332;38.646;-9.154;2023-04-26T09:20:18;6.67;;;2.60;;
4638;SDS011;2332;38.646;-9.154;2023-04-26T09:22:45;5.30;;;3.13;;
4638;SDS011;2332;38.646;-9.154;2023-04-26T09:25:11;4.63;;;3.70;;
4638;SDS011;2332;38.646;-9.154;2023-04-26T09:27:38;7.60;;;4.13;;
4638;SDS011;2332;38.646;-9.154;2023-04-26T09:30:05;7.87;;;5.73;;
4638;SDS011;2332;38.646;-9.154;2023-04-26T09:37:53;3.43;;;2.00;;
4638;SDS011;2332;38.646;-9.154;2023-04-26T09:40:20;3.00;;;2.40;;
4638;SDS011;2332;38.646;-9.154;2023-04-26T09:42:46;6.80;;;2.83;;
4638;SDS011;2332;38.646;-9.154;2023-04-26T09:45:11;2.40;;;2.10;;
4638;SDS011;2332;38.646;-9.154;2023-04-26T09:47:36;3.87;;;2.63;;
4638;SDS011;2332;38.646;-9.154;2023-04-26T09:50:02;3.50;;;2.20;;
4638;SDS011;2332;38.646;-9.154;2023-04-26T09:52:28;2.53;;;1.80;;
4638;SDS011;2332;38.646;-9.154;2023-04-26T09:54:57;2.30;;;1.63;;
4638;SDS011;2332;38.646;-9.154;2023-04-26T09:57:23;4.27;;;1.37;;
4638;SDS011;2332;38.646;-9.154;2023-04-26T09:59:49;3.43;;;1.77;;
4638;SDS011;2332;38.646;-9.154;2023-04-26T10:02:16;4.57;;;1.20;;
4638;SDS011;2332;38.646;-9.154;2023-04-26T10:04:46;2.10;;;1.30;;
4638;SDS011;2332;38.646;-9.154;2023-04-26T10:07:12;2.80;;;1.50;;
4638;SDS011;2332;38.646;-9.154;2023-04-26T10:09:38;3.40;;;1.80;;
4638;SDS011;2332;38.646;-9.154;2023-04-26T10:12:03;2.80;;;1.40;;
4638;SDS011;2332;38.646;-9.154;2023-04-26T10:14:29;1.63;;;1.23;;
4638;SDS011;2332;38.646;-9.154;2023-04-26T10:16:54;1.70;;;1.60;;
4638;SDS011;2332;38.646;-9.154;2023-04-26T10:19:21;1.77;;;1.37;;
4638;SDS011;2332;38.646;-9.154;2023-04-26T10:21:47;3.43;;;1.77;;
4638;SDS011;2332;38.646;-9.154;2023-04-26T10:24:13;1.83;;;1.47;;
4638;SDS011;2332;38.646;-9.154;2023-04-26T10:26:52;2.63;;;1.57;;
4638;SDS011;2332;38.646;-9.154;2023-04-26T10:29:22;1.93;;;1.40;;
4638;SDS011;2332;38.646;-9.154;2023-04-26T10:32:21;2.50;;;1.50;;
4638;SDS011;2332;38.646;-9.154;2023-04-26T10:34:43;9.10;;;2.93;;
4638;SDS011;2332;38.646;-9.154;2023-04-26T10:39:41;8.27;;;2.43;;
4638;SDS011;2332;38.646;-9.154;2023-04-26T10:44:48;5.17;;;2.07;;
4638;SDS011;2332;38.646;-9.154;2023-04-26T10:47:30;14.60;;;2.47;;
4638;SDS011;2332;38.646;-9.154;2023-04-26T10:50:02;6.33;;;2.33;;
4638;SDS011;2332;38.646;-9.154;2023-04-26T10:52:28;8.20;;;2.13;;
4638;SDS011;2332;38.646;-9.154;2023-04-26T10:54:54;6.60;;;2.77;;
4638;SDS011;2332;38.646;-9.154;2023-04-26T10:57:21;7.87;;;2.23;;
4638;SDS011;2332;38.646;-9.154;2023-04-26T11:02:51;4.20;;;2.60;;
4638;SDS011;2332;38.646;-9.154;2023-04-26T11:05:33;13.53;;;2.50;;
4638;SDS011;2332;38.646;-9.154;2023-04-26T11:08:05;2.40;;;1.87;;
4638;SDS011;2332;38.646;-9.154;2023-04-26T11:10:31;6.67;;;1.60;;
4638;SDS011;2332;38.646;-9.154;2023-04-26T11:13:00;1.80;;;1.70;;
4638;SDS011;2332;38.646;-9.154;2023-04-26T11:15:27;2.63;;;1.57;;
4638;SDS011;2332;38.646;-9.154;2023-04-26T11:17:53;2.40;;;1.67;;
4638;SDS011;2332;38.646;-9.154;2023-04-26T11:20:18;3.10;;;1.67;;
4638;SDS011;2332;38.646;-9.154;2023-04-26T11:22:44;5.90;;;2.50;;
4638;SDS011;2332;38.646;-9.154;2023-04-26T11:25:11;2.50;;;1.70;;
4638;SDS011;2332;38.646;-9.154;2023-04-26T11:27:37;2.10;;;1.90;;
4638;SDS011;2332;38.646;-9.154;2023-04-26T11:30:02;5.73;;;1.90;;
4638;SDS011;2332;38.646;-9.154;2023-04-26T11:32:29;8.23;;;1.80;;
4638;SDS011;2332;38.646;-9.154;2023-04-26T11:34:54;2.40;;;1.60;;
4638;SDS011;2332;38.646;-9.154;2023-04-26T11:37:19;1.57;;;1.40;;
4638;SDS011;2332;38.646;-9.154;2023-04-26T11:39:45;3.17;;;1.57;;
4638;SDS011;2332;38.646;-9.154;2023-04-26T11:42:11;5.47;;;1.50;;
4638;SDS011;2332;38.646;-9.154;2023-04-26T11:44:37;12.10;;;1.77;;
4638;SDS011;2332;38.646;-9.154;2023-04-26T11:47:05;3.87;;;2.33;;
4638;SDS011;2332;38.646;-9.154;2023-04-26T11:49:31;4.20;;;1.20;;
4638;SDS011;2332;38.646;-9.154;2023-04-26T11:51:57;3.20;;;1.60;;
4638;SDS011;2332;38.646;-9.154;2023-04-26T11:54:26;3.90;;;1.33;;
4638;SDS011;2332;38.646;-9.154;2023-04-26T11:56:53;3.90;;;1.10;;
4638;SDS011;2332;38.646;-9.154;2023-04-26T11:59:25;2.30;;;1.60;;
4638;SDS011;2332;38.646;-9.154;2023-04-26T12:01:50;2.00;;;1.67;;
4638;SDS011;2332;38.646;-9.154;2023-04-26T12:04:17;3.93;;;1.57;;
4638;SDS011;2332;38.646;-9.154;2023-04-26T12:06:43;3.20;;;1.27;;
4638;SDS011;2332;38.646;-9.154;2023-04-26T12:09:08;5.50;;;1.37;;
4638;SDS011;2332;38.646;-9.154;2023-04-26T12:11:35;2.53;;;1.53;;
4638;SDS011;2332;38.646;-9.154;2023-04-26T12:14:00;2.17;;;1.20;;
4638;SDS011;2332;38.646;-9.154;2023-04-26T12:16:26;1.60;;;1.47;;
4638;SDS011;2332;38.646;-9.154;2023-04-26T12:18:52;2.77;;;1.40;;
4638;SDS011;2332;38.646;-9.154;2023-04-26T12:21:17;0.80;;;0.80;;
4638;SDS011;2332;38.646;-9.154;2023-04-26T12:23:43;0.83;;;0.83;;
4638;SDS011;2332;38.646;-9.154;2023-04-26T12:26:12;3.40;;;1.20;;
4638;SDS011;2332;38.646;-9.154;2023-04-26T12:28:37;2.57;;;0.83;;
4638;SDS011;2332;38.646;-9.154;2023-04-26T12:31:03;1.03;;;1.03;;
4638;SDS011;2332;38.646;-9.154;2023-04-26T12:33:28;1.60;;;0.80;;
4638;SDS011;2332;38.646;-9.154;2023-04-26T12:35:55;1.40;;;0.93;;
4638;SDS011;2332;38.646;-9.154;2023-04-26T12:38:21;0.60;;;0.60;;
4638;SDS011;2332;38.646;-9.154;2023-04-26T12:40:47;0.70;;;0.67;;
4638;SDS011;2332;38.646;-9.154;2023-04-26T12:43:12;3.80;;;0.60;;
4638;SDS011;2332;38.646;-9.154;2023-04-26T12:45:39;1.60;;;0.70;;
4638;SDS011;2332;38.646;-9.154;2023-04-26T12:48:08;0.77;;;0.60;;
4638;SDS011;2332;38.646;-9.154;2023-04-26T12:50:33;2.43;;;0.63;;
4638;SDS011;2332;38.646;-9.154;2023-04-26T12:52:58;0.50;;;0.50;;
4638;SDS011;2332;38.646;-9.154;2023-04-26T12:55:30;0.80;;;0.60;;
4638;SDS011;2332;38.646;-9.154;2023-04-26T12:57:55;0.50;;;0.50;;
4638;SDS011;2332;38.646;-9.154;2023-04-26T13:00:21;0.47;;;0.47;;
4638;SDS011;2332;38.646;-9.154;2023-04-26T13:02:46;0.50;;;0.50;;
4638;SDS011;2332;38.646;-9.154;2023-04-26T13:05:12;0.40;;;0.40;;
4638;SDS011;2332;38.646;-9.154;2023-04-26T13:07:39;0.73;;;0.73;;
4638;SDS011;2332;38.646;-9.154;2023-04-26T13:10:05;0.40;;;0.40;;
4638;SDS011;2332;38.646;-9.154;2023-04-26T13:12:31;0.40;;;0.40;;
4638;SDS011;2332;38.646;-9.154;2023-04-26T13:14:56;0.83;;;0.50;;
4638;SDS011;2332;38.646;-9.154;2023-04-26T13:17:22;1.30;;;0.40;;
4638;SDS011;2332;38.646;-9.154;2023-04-26T13:19:48;0.50;;;0.50;;
4638;SDS011;2332;38.646;-9.154;2023-04-26T13:22:13;0.60;;;0.60;;
4638;SDS011;2332;38.646;-9.154;2023-04-26T13:24:39;0.73;;;0.70;;
4638;SDS011;2332;38.646;-9.154;2023-04-26T13:27:04;1.40;;;0.83;;
4638;SDS011;2332;38.646;-9.154;2023-04-26T13:29:30;0.50;;;0.50;;
4638;SDS011;2332;38.646;-9.154;2023-04-26T13:31:59;0.73;;;0.73;;
4638;SDS011;2332;38.646;-9.154;2023-04-26T13:34:25;0.50;;;0.50;;
4638;SDS011;2332;38.646;-9.154;2023-04-26T13:36:51;4.17;;;0.70;;
4638;SDS011;2332;38.646;-9.154;2023-04-26T13:39:16;0.63;;;0.63;;
4638;SDS011;2332;38.646;-9.154;2023-04-26T13:41:42;3.47;;;0.70;;
4638;SDS011;2332;38.646;-9.154;2023-04-26T13:44:07;1.07;;;0.80;;
4638;SDS011;2332;38.646;-9.154;2023-04-26T13:46:33;1.43;;;0.60;;
4638;SDS011;2332;38.646;-9.154;2023-04-26T13:48:58;1.07;;;0.70;;
4638;SDS011;2332;38.646;-9.154;2023-04-26T13:51:24;0.80;;;0.80;;
4638;SDS011;2332;38.646;-9.154;2023-04-26T13:53:52;1.13;;;0.60;;
4638;SDS011;2332;38.646;-9.154;2023-04-26T13:56:17;0.90;;;0.70;;
4638;SDS011;2332;38.646;-9.154;2023-04-26T13:58:44;0.60;;;0.60;;
4638;SDS011;2332;38.646;-9.154;2023-04-26T14:01:09;2.50;;;0.70;;
4638;SDS011;2332;38.646;-9.154;2023-04-26T14:03:34;0.93;;;0.70;;
4638;SDS011;2332;38.646;-9.154;2023-04-26T14:06:00;1.30;;;1.20;;
4638;SDS011;2332;38.646;-9.154;2023-04-26T14:08:27;1.10;;;0.90;;
4638;SDS011;2332;38.646;-9.154;2023-04-26T14:10:53;0.70;;;0.70;;
4638;SDS011;2332;38.646;-9.154;2023-04-26T14:13:19;0.87;;;0.77;;
4638;SDS011;2332;38.646;-9.154;2023-04-26T14:15:44;2.03;;;0.93;;
4638;SDS011;2332;38.646;-9.154;2023-04-26T14:18:10;5.23;;;0.80;;
4638;SDS011;2332;38.646;-9.154;2023-04-26T14:20:36;0.60;;;0.60;;
4638;SDS011;2332;38.646;-9.154;2023-04-26T14:23:01;1.03;;;0.80;;
4638;SDS011;2332;38.646;-9.154;2023-04-26T14:25:26;1.23;;;1.10;;
4638;SDS011;2332;38.646;-9.154;2023-04-26T14:27:52;3.63;;;1.63;;
4638;SDS011;2332;38.646;-9.154;2023-04-26T14:30:18;8.43;;;2.17;;
4638;SDS011;2332;38.646;-9.154;2023-04-26T14:32:43;15.70;;;2.20;;
4638;SDS011;2332;38.646;-9.154;2023-04-26T14:35:09;7.37;;;1.80;;
4638;SDS011;2332;38.646;-9.154;2023-04-26T14:37:37;6.70;;;2.77;;
4638;SDS011;2332;38.646;-9.154;2023-04-26T14:40:03;5.40;;;3.53;;
4638;SDS011;2332;38.646;-9.154;2023-04-26T14:42:30;8.23;;;1.80;;
4638;SDS011;2332;38.646;-9.154;2023-04-26T14:44:58;4.27;;;2.10;;
4638;SDS011;2332;38.646;-9.154;2023-04-26T14:47:24;6.90;;;1.97;;
4638;SDS011;2332;38.646;-9.154;2023-04-26T14:49:49;4.93;;;1.80;;
4638;SDS011;2332;38.646;-9.154;2023-04-26T14:52:15;3.57;;;1.53;;
4638;SDS011;2332;38.646;-9.154;2023-04-26T14:54:40;2.20;;;1.67;;
4638;SDS011;2332;38.646;-9.154;2023-04-26T14:57:06;6.90;;;1.57;;
4638;SDS011;2332;38.646;-9.154;2023-04-26T14:59:32;7.67;;;2.13;;
4638;SDS011;2332;38.646;-9.154;2023-04-26T15:01:57;3.83;;;1.90;;
4638;SDS011;2332;38.646;-9.154;2023-04-26T15:04:22;3.43;;;1.57;;